createdAt,value
2023-12-30T00:01:57.043Z,81.41
2023-12-30T00:04:44.206Z,81.54
2023-12-30T00:07:31.547Z,81.42
2023-12-30T00:10:18.467Z,81.87
2023-12-30T00:13:05.153Z,82.10
2023-12-30T00:15:52.100Z,82.87
2023-12-30T00:18:38.627Z,83.67
2023-12-30T00:21:25.011Z,84.41
2023-12-30T00:24:11.394Z,84.77
2023-12-30T00:26:58.092Z,84.90
2023-12-30T00:29:44.704Z,85.27
2023-12-30T00:32:31.429Z,85.67
2023-12-30T00:35:18.094Z,85.96
2023-12-30T00:38:04.351Z,86.07
2023-12-30T00:40:50.948Z,86.87
2023-12-30T00:43:38.628Z,87.38
2023-12-30T00:46:25.316Z,87.86
2023-12-30T00:49:12.868Z,87.99
2023-12-30T00:52:00.246Z,87.79
2023-12-30T00:54:50.867Z,87.83
2023-12-30T00:57:38.242Z,87.53
2023-12-30T01:00:25.152Z,87.77
2023-12-30T01:03:11.538Z,87.58
2023-12-30T01:05:58.414Z,88.01
2023-12-30T01:08:44.861Z,87.75
2023-12-30T01:11:31.705Z,88.22
2023-12-30T01:14:18.163Z,88.09
2023-12-30T01:17:05.043Z,88.37
2023-12-30T01:19:52.167Z,88.22
2023-12-30T01:22:38.867Z,88.40
2023-12-30T01:25:25.429Z,88.09
2023-12-30T01:28:11.944Z,88.27
2023-12-30T01:30:58.471Z,87.98
2023-12-30T01:33:46.726Z,87.90
2023-12-30T01:36:33.003Z,88.03
2023-12-30T01:39:19.593Z,88.26
2023-12-30T01:42:06.351Z,88.59
2023-12-30T01:44:53.233Z,88.74
2023-12-30T01:47:40.231Z,88.73
2023-12-30T01:50:27.677Z,88.40
2023-12-30T01:53:16.768Z,88.48
2023-12-30T01:56:04.493Z,88.36
2023-12-30T01:58:52.834Z,88.49
2023-12-30T02:01:39.407Z,88.80
2023-12-30T02:04:26.742Z,88.49
2023-12-30T02:07:13.334Z,88.57
2023-12-30T02:10:00.121Z,88.63
2023-12-30T02:12:46.896Z,88.68
2023-12-30T02:15:33.474Z,88.77
2023-12-30T02:18:19.941Z,88.63
2023-12-30T02:21:08.031Z,88.59
2023-12-30T02:23:55.670Z,88.87
2023-12-30T02:26:42.278Z,88.85
2023-12-30T02:29:29.271Z,89.21
2023-12-30T02:32:15.891Z,88.89
2023-12-30T02:35:02.421Z,89.58
2023-12-30T02:37:49.182Z,89.31
2023-12-30T02:40:35.861Z,89.51
2023-12-30T02:43:25.686Z,90.49
2023-12-30T02:46:12.664Z,90.70
2023-12-30T02:49:03.776Z,91.23
2023-12-30T02:51:50.415Z,91.42
2023-12-30T02:54:37.597Z,91.91
2023-12-30T02:57:27.107Z,91.78
2023-12-30T03:00:14.504Z,91.70
2023-12-30T03:03:01.458Z,91.84
2023-12-30T03:05:48.461Z,91.75
2023-12-30T03:08:34.925Z,91.73
2023-12-30T03:11:22.759Z,91.64
2023-12-30T03:14:09.571Z,91.66
2023-12-30T03:16:55.755Z,91.13
2023-12-30T03:19:42.508Z,91.35
2023-12-30T03:22:29.356Z,91.10
2023-12-30T03:25:16.131Z,91.56
2023-12-30T03:28:02.856Z,91.66
2023-12-30T03:30:50.254Z,92.04
2023-12-30T03:33:37.203Z,91.90
2023-12-30T03:36:24.050Z,91.93
2023-12-30T03:39:11.483Z,91.58
2023-12-30T03:41:58.051Z,91.44
2023-12-30T03:44:44.366Z,91.62
2023-12-30T03:47:32.004Z,92.08
2023-12-30T03:50:19.056Z,91.71
2023-12-30T03:53:06.452Z,92.02
2023-12-30T03:55:53.352Z,92.64
2023-12-30T03:58:39.897Z,92.65
2023-12-30T04:01:27.653Z,92.63
2023-12-30T04:04:14.041Z,92.72
2023-12-30T04:07:00.352Z,92.42
2023-12-30T04:09:47.261Z,92.26
2023-12-30T04:12:36.474Z,92.56
2023-12-30T04:15:23.397Z,92.67
2023-12-30T04:18:09.675Z,92.35
2023-12-30T04:20:56.773Z,92.32
2023-12-30T04:23:43.326Z,92.39
2023-12-30T04:26:30.057Z,92.29
2023-12-30T04:29:17.067Z,92.19
2023-12-30T04:32:04.186Z,92.15
2023-12-30T04:34:50.932Z,92.60
2023-12-30T04:37:37.876Z,92.40
2023-12-30T04:40:24.795Z,92.46
2023-12-30T04:43:11.950Z,92.57
2023-12-30T04:45:58.397Z,92.50
2023-12-30T04:48:45.280Z,92.63
2023-12-30T04:51:32.029Z,92.28
2023-12-30T04:54:18.279Z,92.59
2023-12-30T04:57:04.983Z,92.38
2023-12-30T04:59:51.501Z,92.20
2023-12-30T05:02:38.154Z,92.50
2023-12-30T05:05:25.078Z,92.74
2023-12-30T05:08:11.692Z,92.53
2023-12-30T05:10:59.693Z,92.26
2023-12-30T05:13:47.374Z,92.43
2023-12-30T05:16:34.523Z,92.60
2023-12-30T05:19:21.787Z,92.55
2023-12-30T05:22:08.444Z,92.49
2023-12-30T05:24:55.542Z,92.23
2023-12-30T05:27:42.199Z,92.19
2023-12-30T05:30:30.170Z,92.00
2023-12-30T05:33:17.189Z,92.60
2023-12-30T05:36:04.477Z,92.68
2023-12-30T05:38:51.257Z,92.48
2023-12-30T05:41:40.588Z,92.26
2023-12-30T05:44:27.011Z,92.51
2023-12-30T05:47:13.508Z,92.49
2023-12-30T05:50:00.074Z,92.36
2023-12-30T05:52:46.924Z,92.40
2023-12-30T05:55:33.786Z,92.40
2023-12-30T05:58:20.355Z,92.42
2023-12-30T06:01:07.103Z,92.21
2023-12-30T06:03:53.916Z,92.10
2023-12-30T06:06:41.496Z,92.28
2023-12-30T06:09:28.303Z,92.46
2023-12-30T06:12:14.960Z,92.50
2023-12-30T06:15:01.771Z,92.25
2023-12-30T06:17:48.398Z,92.35
2023-12-30T06:20:34.868Z,92.15
2023-12-30T06:23:21.268Z,92.20
2023-12-30T06:26:08.252Z,92.25
2023-12-30T06:28:54.654Z,92.33
2023-12-30T06:31:43.000Z,92.14
2023-12-30T06:34:29.927Z,92.22
2023-12-30T06:37:18.067Z,92.28
2023-12-30T06:40:05.627Z,91.93
2023-12-30T06:42:51.839Z,92.07
2023-12-30T06:45:38.986Z,92.07
2023-12-30T06:48:25.449Z,92.09
2023-12-30T06:51:12.652Z,92.28
2023-12-30T06:53:58.981Z,92.39
2023-12-30T06:56:45.630Z,92.32
2023-12-30T06:59:32.260Z,92.25
2023-12-30T07:02:19.019Z,92.43
2023-12-30T07:05:06.897Z,92.41
2023-12-30T07:07:53.260Z,92.16
2023-12-30T07:10:40.468Z,92.21
2023-12-30T07:13:27.127Z,92.23
2023-12-30T07:16:16.700Z,92.07
2023-12-30T07:19:03.475Z,92.28
2023-12-30T07:21:50.354Z,92.28
2023-12-30T07:24:38.513Z,91.95
2023-12-30T07:27:24.840Z,91.97
2023-12-30T07:30:12.216Z,91.94
2023-12-30T07:32:58.993Z,91.67
2023-12-30T07:35:45.756Z,91.70
2023-12-30T07:38:32.982Z,91.62
2023-12-30T07:41:19.402Z,91.53
2023-12-30T07:44:06.010Z,91.37
2023-12-30T07:46:52.690Z,91.30
2023-12-30T07:49:39.255Z,91.10
2023-12-30T07:52:26.879Z,91.14
2023-12-30T07:55:13.554Z,91.17
2023-12-30T07:58:00.532Z,90.47
2023-12-30T08:00:48.382Z,90.43
2023-12-30T08:03:35.147Z,89.49
2023-12-30T08:06:22.122Z,89.75
2023-12-30T08:09:09.275Z,89.60
2023-12-30T08:12:02.151Z,89.32
2023-12-30T08:14:50.133Z,88.53
2023-12-30T08:17:36.889Z,88.36
2023-12-30T08:20:23.646Z,87.83
2023-12-30T08:23:10.379Z,88.27
2023-12-30T08:25:57.247Z,88.00
2023-12-30T08:28:43.929Z,87.58
2023-12-30T08:31:30.284Z,84.77
2023-12-30T08:34:17.508Z,85.78
2023-12-30T08:37:09.589Z,85.06
2023-12-30T08:39:56.562Z,83.66
2023-12-30T08:42:45.790Z,81.24
2023-12-30T08:45:33.145Z,81.32
2023-12-30T08:48:20.134Z,80.35
2023-12-30T08:51:06.851Z,78.11
2023-12-30T08:53:54.784Z,80.32
2023-12-30T08:56:41.617Z,78.46
2023-12-30T08:59:28.407Z,77.47
2023-12-30T09:02:15.452Z,77.33
2023-12-30T09:05:04.101Z,76.37
2023-12-30T09:07:51.087Z,76.85
2023-12-30T09:10:39.585Z,77.55
2023-12-30T09:13:25.894Z,76.90
2023-12-30T09:16:13.090Z,76.63
2023-12-30T09:18:59.758Z,75.80
2023-12-30T09:21:46.503Z,75.63
2023-12-30T09:24:33.072Z,74.97
2023-12-30T09:27:19.953Z,75.65
2023-12-30T09:30:07.527Z,74.54
2023-12-30T09:32:54.127Z,73.35
2023-12-30T09:35:41.061Z,74.89
2023-12-30T09:38:27.658Z,73.59
2023-12-30T09:41:14.974Z,72.55
2023-12-30T09:44:04.344Z,73.11
2023-12-30T09:46:52.128Z,71.73
2023-12-30T09:49:38.858Z,71.80
2023-12-30T09:52:26.154Z,70.84
2023-12-30T09:55:13.194Z,70.22
2023-12-30T09:58:01.100Z,70.60
2023-12-30T10:00:48.323Z,71.45
2023-12-30T10:03:37.200Z,72.56
2023-12-30T10:06:25.111Z,72.52
2023-12-30T10:09:13.194Z,71.39
2023-12-30T10:11:59.885Z,72.09
2023-12-30T10:14:46.898Z,73.01
2023-12-30T10:17:33.399Z,73.67
2023-12-30T10:20:24.700Z,75.21
2023-12-30T10:23:11.659Z,77.64
2023-12-30T10:25:58.443Z,79.13
2023-12-30T10:28:45.974Z,80.72
2023-12-30T10:31:32.867Z,80.75
2023-12-30T10:34:22.236Z,80.72
2023-12-30T10:37:09.649Z,80.11
2023-12-30T10:39:57.009Z,80.15
2023-12-30T10:42:43.806Z,80.15
2023-12-30T10:45:31.267Z,79.10
2023-12-30T10:48:19.463Z,79.05
2023-12-30T10:51:07.797Z,78.19
2023-12-30T10:54:05.700Z,76.78
2023-12-30T10:57:07.560Z,76.17
2023-12-30T10:59:58.322Z,74.60
2023-12-30T11:02:46.774Z,74.69
2023-12-30T11:05:57.365Z,74.44
2023-12-30T11:08:45.679Z,74.89
2023-12-30T11:11:32.717Z,74.15
2023-12-30T11:14:20.690Z,75.13
2023-12-30T11:17:07.648Z,74.68
2023-12-30T11:19:56.444Z,74.86
2023-12-30T11:22:43.420Z,75.84
2023-12-30T11:25:36.777Z,75.31
2023-12-30T11:28:23.920Z,74.69
2023-12-30T11:31:10.733Z,74.66
2023-12-30T11:34:00.249Z,75.17
2023-12-30T11:36:48.418Z,74.53
2023-12-30T11:42:33.984Z,74.16
2023-12-30T11:45:28.253Z,73.66
2023-12-30T11:48:16.438Z,74.04
2023-12-30T11:51:02.970Z,73.67
2023-12-30T11:53:49.628Z,73.28
2023-12-30T11:56:36.381Z,73.27
2023-12-30T11:59:22.918Z,73.23
2023-12-30T12:02:12.575Z,72.03
2023-12-30T12:04:59.333Z,72.12
2023-12-30T12:07:46.302Z,71.45
2023-12-30T12:10:34.262Z,72.24
2023-12-30T12:13:22.482Z,72.83
2023-12-30T12:16:09.541Z,72.98
2023-12-30T12:18:56.816Z,73.16
2023-12-30T12:21:43.483Z,73.88
2023-12-30T12:24:33.085Z,74.88
2023-12-30T12:27:23.719Z,74.38
2023-12-30T12:30:11.829Z,75.82
2023-12-30T12:32:58.408Z,77.01
2023-12-30T12:35:45.477Z,77.64
2023-12-30T12:38:32.180Z,78.49
2023-12-30T12:41:18.933Z,79.22
2023-12-30T12:44:06.233Z,78.98
2023-12-30T12:46:52.905Z,79.05
2023-12-30T12:49:40.298Z,79.28
2023-12-30T12:52:26.824Z,78.96
2023-12-30T12:55:14.133Z,78.38
2023-12-30T12:58:00.651Z,78.55
2023-12-30T13:00:47.653Z,78.55
2023-12-30T13:03:34.732Z,77.77
2023-12-30T13:06:23.975Z,77.69
2023-12-30T13:10:07.435Z,78.12
2023-12-30T13:12:54.674Z,78.40
2023-12-30T13:15:41.700Z,78.60
2023-12-30T13:18:29.599Z,78.90
2023-12-30T13:21:16.702Z,78.69
2023-12-30T13:24:03.384Z,78.50
2023-12-30T13:26:50.491Z,78.33
2023-12-30T13:29:38.146Z,78.40
2023-12-30T13:32:28.858Z,78.49
2023-12-30T13:35:15.660Z,78.58
2023-12-30T13:38:07.825Z,78.60
2023-12-30T13:40:54.769Z,78.52
2023-12-30T13:43:45.026Z,78.07
2023-12-30T13:46:32.996Z,78.41
2023-12-30T13:49:41.864Z,78.15
2023-12-30T13:52:29.831Z,78.22
2023-12-30T13:55:19.747Z,77.66
2023-12-30T13:58:06.820Z,78.16
2023-12-30T14:00:53.513Z,78.27
2023-12-30T14:03:41.413Z,77.82
2023-12-30T14:06:34.825Z,78.01
2023-12-30T14:09:33.330Z,77.98
2023-12-30T14:12:21.052Z,77.77
2023-12-30T14:15:13.666Z,78.14
2023-12-30T14:18:00.566Z,78.25
2023-12-30T14:20:48.385Z,77.77
2023-12-30T14:23:35.039Z,77.55
2023-12-30T14:26:22.427Z,77.30
2023-12-30T14:29:09.690Z,77.28
2023-12-30T14:31:56.390Z,77.42
2023-12-30T14:34:43.012Z,77.50
2023-12-30T14:37:29.944Z,77.80
2023-12-30T14:40:17.629Z,77.54
2023-12-30T14:43:04.719Z,77.52
2023-12-30T14:45:51.547Z,77.45
2023-12-30T14:48:39.149Z,77.51
2023-12-30T14:51:26.375Z,77.11
2023-12-30T14:54:13.319Z,77.16
2023-12-30T14:57:00.288Z,77.50
2023-12-30T14:59:46.994Z,77.01
2023-12-30T15:02:35.096Z,76.85
2023-12-30T15:05:23.628Z,76.95
2023-12-30T15:08:10.691Z,77.03
2023-12-30T15:10:57.478Z,77.04
2023-12-30T15:13:43.764Z,77.25
2023-12-30T15:16:30.302Z,77.07
2023-12-30T15:19:17.043Z,76.74
2023-12-30T15:22:04.005Z,77.18
2023-12-30T15:24:51.121Z,77.44
2023-12-30T15:27:37.872Z,77.62
2023-12-30T15:30:24.610Z,77.30
2023-12-30T15:33:12.040Z,77.61
2023-12-30T15:36:04.227Z,78.01
2023-12-30T15:38:50.914Z,77.65
2023-12-30T15:41:37.299Z,77.68
2023-12-30T15:44:26.157Z,77.92
2023-12-30T15:47:13.747Z,78.24
2023-12-30T15:50:00.759Z,78.52
2023-12-30T15:52:47.761Z,78.72
2023-12-30T15:55:35.315Z,79.18
2023-12-30T15:58:22.066Z,79.50
2023-12-30T16:01:08.710Z,79.44
2023-12-30T16:03:55.872Z,79.64
2023-12-30T16:06:43.009Z,79.59
2023-12-30T16:09:29.525Z,80.12
2023-12-30T16:12:16.047Z,80.11
2023-12-30T16:15:02.659Z,79.83
2023-12-30T16:17:49.827Z,79.79
2023-12-30T16:20:36.575Z,79.75
2023-12-30T16:23:23.104Z,79.29
2023-12-30T16:26:10.223Z,79.74
2023-12-30T16:28:58.532Z,80.08
2023-12-30T16:31:45.155Z,79.84
2023-12-30T16:34:32.299Z,79.68
2023-12-30T16:37:23.923Z,79.88
2023-12-30T16:40:11.724Z,80.72
2023-12-30T16:42:58.122Z,81.47
2023-12-30T16:45:46.286Z,82.18
2023-12-30T16:48:34.462Z,83.23
2023-12-30T16:51:21.772Z,83.75
2023-12-30T16:54:09.618Z,84.94
2023-12-30T16:56:57.734Z,85.10
2023-12-30T16:59:44.357Z,85.81
2023-12-30T17:02:31.041Z,86.79
2023-12-30T17:05:17.962Z,85.97
2023-12-30T17:08:05.352Z,86.13
2023-12-30T17:10:52.107Z,86.86
2023-12-30T17:13:43.187Z,86.80
2023-12-30T17:16:37.359Z,87.19
2023-12-30T17:19:23.700Z,87.45
2023-12-30T17:22:10.437Z,87.83
2023-12-30T17:24:56.749Z,87.70
2023-12-30T17:27:43.149Z,88.01
2023-12-30T17:30:29.476Z,88.95
2023-12-30T17:33:16.367Z,88.81
2023-12-30T17:36:03.289Z,89.13
2023-12-30T17:38:50.323Z,89.17
2023-12-30T17:41:37.002Z,88.94
2023-12-30T17:44:23.623Z,89.15
2023-12-30T17:47:11.109Z,89.24
2023-12-30T17:49:58.097Z,89.17
2023-12-30T17:52:45.002Z,89.10
2023-12-30T17:55:33.989Z,89.18
2023-12-30T17:58:21.983Z,88.67
2023-12-30T18:01:28.620Z,88.78
2023-12-30T18:04:15.631Z,89.27
2023-12-30T18:07:02.660Z,89.80
2023-12-30T18:09:49.386Z,89.53
2023-12-30T18:12:37.742Z,88.90
2023-12-30T18:15:24.377Z,88.95
2023-12-30T18:18:12.101Z,89.27
2023-12-30T18:20:58.810Z,89.57
2023-12-30T18:23:45.545Z,89.32
2023-12-30T18:26:32.581Z,89.43
2023-12-30T18:29:19.580Z,89.23
2023-12-30T18:32:07.962Z,89.32
2023-12-30T18:34:54.600Z,89.85
2023-12-30T18:37:42.832Z,89.79
2023-12-30T18:40:29.701Z,89.63
2023-12-30T18:43:16.571Z,89.84
2023-12-30T18:46:03.349Z,89.51
2023-12-30T18:48:50.133Z,89.51
2023-12-30T18:51:36.774Z,89.83
2023-12-30T18:54:22.993Z,90.04
2023-12-30T18:57:09.516Z,89.99
2023-12-30T18:59:56.075Z,90.07
2023-12-30T19:02:42.994Z,90.23
2023-12-30T19:05:30.417Z,90.22
2023-12-30T19:08:17.285Z,90.26
2023-12-30T19:11:04.930Z,90.39
2023-12-30T19:13:51.846Z,90.33
2023-12-30T19:16:38.688Z,90.37
2023-12-30T19:19:25.061Z,90.70
2023-12-30T19:22:12.804Z,90.62
2023-12-30T19:24:59.887Z,90.62
2023-12-30T19:27:47.228Z,90.67
2023-12-30T19:30:34.058Z,90.44
2023-12-30T19:33:21.054Z,90.44
2023-12-30T19:36:09.736Z,90.55
2023-12-30T19:38:56.268Z,90.08
2023-12-30T19:41:43.946Z,90.67
2023-12-30T19:44:30.516Z,90.38
2023-12-30T19:47:17.055Z,90.35
2023-12-30T19:50:04.896Z,89.90
2023-12-30T19:52:52.095Z,89.94
2023-12-30T19:55:38.999Z,89.80
2023-12-30T19:58:28.885Z,90.23
2023-12-30T20:01:20.336Z,89.84
2023-12-30T20:04:06.910Z,89.69
2023-12-30T20:06:53.755Z,89.91
2023-12-30T20:09:42.448Z,90.11
2023-12-30T20:12:29.953Z,90.00
2023-12-30T20:15:18.062Z,90.45
2023-12-30T20:18:05.451Z,89.81
2023-12-30T20:20:52.205Z,90.25
2023-12-30T20:23:38.706Z,91.58
2023-12-30T20:26:25.642Z,91.91
2023-12-30T20:29:11.845Z,91.88
2023-12-30T20:31:58.611Z,91.82
2023-12-30T20:34:46.900Z,91.47
2023-12-30T20:37:33.588Z,91.59
2023-12-30T20:40:20.540Z,90.98
2023-12-30T20:43:07.315Z,90.11
2023-12-30T20:45:54.038Z,89.84
2023-12-30T20:48:43.766Z,89.84
2023-12-30T20:51:30.028Z,89.71
2023-12-30T20:54:17.531Z,89.80
2023-12-30T20:57:04.235Z,89.71
2023-12-30T20:59:50.907Z,90.05
2023-12-30T21:02:39.266Z,90.15
2023-12-30T21:05:25.745Z,89.95
2023-12-30T21:08:12.751Z,90.11
2023-12-30T21:10:59.408Z,90.89
2023-12-30T21:13:46.818Z,91.22
2023-12-30T21:16:33.287Z,91.81
2023-12-30T21:19:20.136Z,91.10
2023-12-30T21:22:07.023Z,90.45
2023-12-30T21:24:53.784Z,90.17
2023-12-30T21:27:40.432Z,90.79
2023-12-30T21:30:27.004Z,90.96
2023-12-30T21:33:13.702Z,91.23
2023-12-30T21:36:00.324Z,90.72
2023-12-30T21:38:46.894Z,90.33
2023-12-30T21:41:33.314Z,90.47
2023-12-30T21:44:19.950Z,90.84
2023-12-30T21:47:06.873Z,90.95
2023-12-30T21:49:53.489Z,90.92
2023-12-30T21:52:40.498Z,91.04
2023-12-30T21:55:27.266Z,91.19
2023-12-30T21:58:14.288Z,90.55
2023-12-30T22:01:02.472Z,90.44
2023-12-30T22:03:49.718Z,90.65
2023-12-30T22:06:36.432Z,90.61
2023-12-30T22:09:23.006Z,91.38
2023-12-30T22:12:10.516Z,91.59
2023-12-30T22:14:56.783Z,91.88
2023-12-30T22:17:43.617Z,91.56
2023-12-30T22:20:30.533Z,91.46
2023-12-30T22:23:19.295Z,91.28
2023-12-30T22:26:06.449Z,91.44
2023-12-30T22:28:53.031Z,91.36
2023-12-30T22:31:43.118Z,90.72
2023-12-30T22:34:29.609Z,90.55
2023-12-30T22:37:17.747Z,90.61
2023-12-30T22:40:05.336Z,91.01
2023-12-30T22:42:52.009Z,91.08
2023-12-30T22:45:42.192Z,91.25
2023-12-30T22:48:28.690Z,90.87
2023-12-30T22:51:15.617Z,90.91
2023-12-30T22:54:02.367Z,91.03
2023-12-30T22:56:49.314Z,90.72
2023-12-30T22:59:36.694Z,90.42
2023-12-30T23:02:23.715Z,89.86
2023-12-30T23:05:11.279Z,89.94
2023-12-30T23:07:58.711Z,89.76
2023-12-30T23:10:45.325Z,89.80
2023-12-30T23:13:32.208Z,90.54
2023-12-30T23:16:18.694Z,90.44
2023-12-30T23:19:05.678Z,90.98
2023-12-30T23:21:53.430Z,91.65
2023-12-30T23:24:40.386Z,91.60
2023-12-30T23:27:26.970Z,90.82
2023-12-30T23:30:15.087Z,90.75
2023-12-30T23:33:01.826Z,90.12
2023-12-30T23:35:48.813Z,90.25
2023-12-30T23:38:35.818Z,90.10
2023-12-30T23:41:22.178Z,89.87
2023-12-30T23:44:08.815Z,89.96
2023-12-30T23:46:55.617Z,90.16
2023-12-30T23:49:42.085Z,90.46
2023-12-30T23:52:28.714Z,90.18
2023-12-30T23:55:15.800Z,90.89
2023-12-30T23:58:03.232Z,91.14
